sensor_id;sensor_type;location;lat;lon;timestamp;temperature;humidity
23719;DHT22;43322;52.230;5.702;2023-06-22T00:01:44;17.60;99.90
23719;DHT22;43322;52.230;5.702;2023-06-22T00:04:11;17.40;99.90
23719;DHT22;43322;52.230;5.702;2023-06-22T00:06:37;17.40;99.90
23719;DHT22;43322;52.230;5.702;2023-06-22T00:09:05;17.50;99.90
23719;DHT22;43322;52.230;5.702;2023-06-22T00:11:33;17.50;99.90
23719;DHT22;43322;52.230;5.702;2023-06-22T00:14:00;17.40;99.90
23719;DHT22;43322;52.230;5.702;2023-06-22T00:16:26;17.00;99.90
23719;DHT22;43322;52.230;5.702;2023-06-22T00:18:53;16.90;99.90
23719;DHT22;43322;52.230;5.702;2023-06-22T00:21:20;16.90;99.90
23719;DHT22;43322;52.230;5.702;2023-06-22T00:23:47;17.00;99.90
23719;DHT22;43322;52.230;5.702;2023-06-22T00:26:15;17.10;99.90
23719;DHT22;43322;52.230;5.702;2023-06-22T00:28:42;17.20;99.90
23719;DHT22;43322;52.230;5.702;2023-06-22T00:31:09;17.00;99.90
23719;DHT22;43322;52.230;5.702;2023-06-22T00:33:36;16.90;99.90
23719;DHT22;43322;52.230;5.702;2023-06-22T00:36:03;17.00;99.90
23719;DHT22;43322;52.230;5.702;2023-06-22T00:38:29;17.00;99.90
23719;DHT22;43322;52.230;5.702;2023-06-22T00:40:56;17.10;99.90
23719;DHT22;43322;52.230;5.702;2023-06-22T00:43:24;17.00;99.90
23719;DHT22;43322;52.230;5.702;2023-06-22T00:45:51;16.90;99.90
23719;DHT22;43322;52.230;5.702;2023-06-22T00:48:18;16.80;99.90
23719;DHT22;43322;52.230;5.702;2023-06-22T00:50:45;16.80;99.90
23719;DHT22;43322;52.230;5.702;2023-06-22T00:53:14;16.80;99.90
23719;DHT22;43322;52.230;5.702;2023-06-22T00:55:44;16.90;99.90
23719;DHT22;43322;52.230;5.702;2023-06-22T00:58:13;16.90;99.90
23719;DHT22;43322;52.230;5.702;2023-06-22T01:00:41;16.90;99.90
23719;DHT22;43322;52.230;5.702;2023-06-22T01:03:08;16.90;99.90
23719;DHT22;43322;52.230;5.702;2023-06-22T01:05:35;16.90;99.90
23719;DHT22;43322;52.230;5.702;2023-06-22T01:08:08;16.70;99.90
23719;DHT22;43322;52.230;5.702;2023-06-22T01:10:43;16.80;99.90
23719;DHT22;43322;52.230;5.702;2023-06-22T01:13:17;16.70;99.90
23719;DHT22;43322;52.230;5.702;2023-06-22T01:15:49;16.60;99.90
23719;DHT22;43322;52.230;5.702;2023-06-22T01:18:18;16.60;99.90
23719;DHT22;43322;52.230;5.702;2023-06-22T01:20:46;16.70;99.90
23719;DHT22;43322;52.230;5.702;2023-06-22T01:23:25;16.60;99.90
23719;DHT22;43322;52.230;5.702;2023-06-22T01:25:59;16.60;99.90
23719;DHT22;43322;52.230;5.702;2023-06-22T01:28:39;16.60;99.90
23719;DHT22;43322;52.230;5.702;2023-06-22T01:31:08;16.70;99.90
23719;DHT22;43322;52.230;5.702;2023-06-22T01:33:39;16.60;99.90
23719;DHT22;43322;52.230;5.702;2023-06-22T01:36:07;16.70;99.90
23719;DHT22;43322;52.230;5.702;2023-06-22T01:38:36;16.60;99.90
23719;DHT22;43322;52.230;5.702;2023-06-22T01:41:04;16.50;99.90
23719;DHT22;43322;52.230;5.702;2023-06-22T01:43:32;16.40;99.90
23719;DHT22;43322;52.230;5.702;2023-06-22T01:46:02;16.50;99.90
23719;DHT22;43322;52.230;5.702;2023-06-22T01:48:29;16.60;99.90
23719;DHT22;43322;52.230;5.702;2023-06-22T01:50:56;16.60;99.90
23719;DHT22;43322;52.230;5.702;2023-06-22T01:53:23;16.60;99.90
23719;DHT22;43322;52.230;5.702;2023-06-22T01:55:50;16.60;99.90
23719;DHT22;43322;52.230;5.702;2023-06-22T01:58:17;16.50;99.90
23719;DHT22;43322;52.230;5.702;2023-06-22T02:00:52;16.50;99.90
23719;DHT22;43322;52.230;5.702;2023-06-22T02:03:23;16.60;99.90
23719;DHT22;43322;52.230;5.702;2023-06-22T02:05:56;16.50;99.90
23719;DHT22;43322;52.230;5.702;2023-06-22T02:08:27;16.50;99.90
23719;DHT22;43322;52.230;5.702;2023-06-22T02:10:55;16.50;99.90
23719;DHT22;43322;52.230;5.702;2023-06-22T02:13:24;16.40;99.90
23719;DHT22;43322;52.230;5.702;2023-06-22T02:15:51;16.40;99.90
23719;DHT22;43322;52.230;5.702;2023-06-22T02:18:18;16.40;99.90
23719;DHT22;43322;52.230;5.702;2023-06-22T02:20:47;16.40;99.90
23719;DHT22;43322;52.230;5.702;2023-06-22T02:23:14;16.30;99.90
23719;DHT22;43322;52.230;5.702;2023-06-22T02:25:40;16.20;99.90
23719;DHT22;43322;52.230;5.702;2023-06-22T02:28:09;16.20;99.90
23719;DHT22;43322;52.230;5.702;2023-06-22T02:30:36;16.20;99.90
23719;DHT22;43322;52.230;5.702;2023-06-22T02:33:03;16.00;99.90
23719;DHT22;43322;52.230;5.702;2023-06-22T02:35:30;16.10;99.90
23719;DHT22;43322;52.230;5.702;2023-06-22T02:37:58;16.10;99.90
23719;DHT22;43322;52.230;5.702;2023-06-22T02:40:25;16.20;99.90
23719;DHT22;43322;52.230;5.702;2023-06-22T02:42:52;16.10;99.90
23719;DHT22;43322;52.230;5.702;2023-06-22T02:45:19;16.20;99.90
23719;DHT22;43322;52.230;5.702;2023-06-22T02:47:46;16.10;99.90
23719;DHT22;43322;52.230;5.702;2023-06-22T02:50:13;16.00;99.90
23719;DHT22;43322;52.230;5.702;2023-06-22T02:52:40;16.00;99.90
23719;DHT22;43322;52.230;5.702;2023-06-22T02:55:08;15.90;99.90
23719;DHT22;43322;52.230;5.702;2023-06-22T02:57:35;16.00;99.90
23719;DHT22;43322;52.230;5.702;2023-06-22T03:00:03;16.00;99.90
23719;DHT22;43322;52.230;5.702;2023-06-22T03:02:42;16.00;99.90
23719;DHT22;43322;52.230;5.702;2023-06-22T03:05:08;15.80;99.90
23719;DHT22;43322;52.230;5.702;2023-06-22T03:07:39;15.90;99.90
23719;DHT22;43322;52.230;5.702;2023-06-22T03:10:08;16.00;99.90
23719;DHT22;43322;52.230;5.702;2023-06-22T03:12:35;16.00;99.90
23719;DHT22;43322;52.230;5.702;2023-06-22T03:15:03;16.00;99.90
23719;DHT22;43322;52.230;5.702;2023-06-22T03:17:30;16.00;99.90
23719;DHT22;43322;52.230;5.702;2023-06-22T03:19:56;16.10;99.90
23719;DHT22;43322;52.230;5.702;2023-06-22T03:22:23;16.10;99.90
23719;DHT22;43322;52.230;5.702;2023-06-22T03:24:50;16.10;99.90
23719;DHT22;43322;52.230;5.702;2023-06-22T03:27:18;16.10;99.90
23719;DHT22;43322;52.230;5.702;2023-06-22T03:29:45;16.10;99.90
23719;DHT22;43322;52.230;5.702;2023-06-22T03:32:11;16.10;99.90
23719;DHT22;43322;52.230;5.702;2023-06-22T03:34:38;16.00;99.90
23719;DHT22;43322;52.230;5.702;2023-06-22T03:37:04;16.00;99.90
23719;DHT22;43322;52.230;5.702;2023-06-22T03:39:31;16.00;99.90
23719;DHT22;43322;52.230;5.702;2023-06-22T03:41:58;16.00;99.90
23719;DHT22;43322;52.230;5.702;2023-06-22T03:44:27;15.90;99.90
23719;DHT22;43322;52.230;5.702;2023-06-22T03:46:53;15.90;99.90
23719;DHT22;43322;52.230;5.702;2023-06-22T03:49:20;15.90;99.90
23719;DHT22;43322;52.230;5.702;2023-06-22T03:51:46;16.00;99.90
23719;DHT22;43322;52.230;5.702;2023-06-22T03:54:13;16.00;99.90
23719;DHT22;43322;52.230;5.702;2023-06-22T03:56:40;16.00;99.90
23719;DHT22;43322;52.230;5.702;2023-06-22T03:59:06;16.00;99.90
23719;DHT22;43322;52.230;5.702;2023-06-22T04:01:34;16.00;99.90
23719;DHT22;43322;52.230;5.702;2023-06-22T04:04:02;16.00;99.90
23719;DHT22;43322;52.230;5.702;2023-06-22T04:06:28;16.10;99.90
23719;DHT22;43322;52.230;5.702;2023-06-22T04:08:55;16.00;99.90
23719;DHT22;43322;52.230;5.702;2023-06-22T04:11:22;16.10;99.90
23719;DHT22;43322;52.230;5.702;2023-06-22T04:13:48;16.10;99.90
23719;DHT22;43322;52.230;5.702;2023-06-22T04:16:16;16.10;99.90
23719;DHT22;43322;52.230;5.702;2023-06-22T04:18:44;16.20;99.90
23719;DHT22;43322;52.230;5.702;2023-06-22T04:21:11;16.10;99.90
23719;DHT22;43322;52.230;5.702;2023-06-22T04:23:38;16.20;99.90
23719;DHT22;43322;52.230;5.702;2023-06-22T04:26:04;16.30;99.90
23719;DHT22;43322;52.230;5.702;2023-06-22T04:28:31;16.40;99.90
23719;DHT22;43322;52.230;5.702;2023-06-22T04:31:00;16.50;99.90
23719;DHT22;43322;52.230;5.702;2023-06-22T04:33:27;16.60;99.90
23719;DHT22;43322;52.230;5.702;2023-06-22T04:35:56;16.70;99.90
23719;DHT22;43322;52.230;5.702;2023-06-22T04:38:24;16.80;99.90
23719;DHT22;43322;52.230;5.702;2023-06-22T04:40:51;16.90;99.90
23719;DHT22;43322;52.230;5.702;2023-06-22T04:43:18;17.00;99.90
23719;DHT22;43322;52.230;5.702;2023-06-22T04:45:45;17.00;99.90
23719;DHT22;43322;52.230;5.702;2023-06-22T04:48:12;17.10;99.90
23719;DHT22;43322;52.230;5.702;2023-06-22T04:50:41;17.20;99.90
23719;DHT22;43322;52.230;5.702;2023-06-22T04:53:09;17.20;99.90
23719;DHT22;43322;52.230;5.702;2023-06-22T04:55:38;17.30;99.90
23719;DHT22;43322;52.230;5.702;2023-06-22T04:58:07;17.30;99.90
23719;DHT22;43322;52.230;5.702;2023-06-22T05:00:34;17.40;99.90
23719;DHT22;43322;52.230;5.702;2023-06-22T05:03:02;17.50;99.90
23719;DHT22;43322;52.230;5.702;2023-06-22T05:05:29;17.50;99.90
23719;DHT22;43322;52.230;5.702;2023-06-22T05:07:57;17.60;99.90
23719;DHT22;43322;52.230;5.702;2023-06-22T05:10:27;17.60;99.90
23719;DHT22;43322;52.230;5.702;2023-06-22T05:12:54;17.70;99.90
23719;DHT22;43322;52.230;5.702;2023-06-22T05:15:20;17.70;99.90
23719;DHT22;43322;52.230;5.702;2023-06-22T05:17:48;17.70;99.90
23719;DHT22;43322;52.230;5.702;2023-06-22T05:20:15;17.80;99.90
23719;DHT22;43322;52.230;5.702;2023-06-22T05:22:43;17.90;99.90
23719;DHT22;43322;52.230;5.702;2023-06-22T05:25:11;17.90;99.90
23719;DHT22;43322;52.230;5.702;2023-06-22T05:27:39;17.90;99.90
23719;DHT22;43322;52.230;5.702;2023-06-22T05:30:06;18.00;99.90
23719;DHT22;43322;52.230;5.702;2023-06-22T05:32:34;18.00;99.90
23719;DHT22;43322;52.230;5.702;2023-06-22T05:35:00;18.10;99.90
23719;DHT22;43322;52.230;5.702;2023-06-22T05:37:28;18.10;99.90
23719;DHT22;43322;52.230;5.702;2023-06-22T05:39:55;18.80;99.90
23719;DHT22;43322;52.230;5.702;2023-06-22T05:42:22;18.20;99.90
23719;DHT22;43322;52.230;5.702;2023-06-22T05:44:52;18.30;99.90
23719;DHT22;43322;52.230;5.702;2023-06-22T05:47:19;18.40;99.90
23719;DHT22;43322;52.230;5.702;2023-06-22T05:49:46;18.50;99.90
23719;DHT22;43322;52.230;5.702;2023-06-22T05:52:12;18.60;99.90
23719;DHT22;43322;52.230;5.702;2023-06-22T05:54:39;18.70;99.90
23719;DHT22;43322;52.230;5.702;2023-06-22T05:57:07;18.90;99.90
23719;DHT22;43322;52.230;5.702;2023-06-22T05:59:33;18.90;99.90
23719;DHT22;43322;52.230;5.702;2023-06-22T06:02:02;19.00;99.90
23719;DHT22;43322;52.230;5.702;2023-06-22T06:04:28;19.00;99.90
23719;DHT22;43322;52.230;5.702;2023-06-22T06:06:55;19.10;99.90
23719;DHT22;43322;52.230;5.702;2023-06-22T06:09:22;19.20;99.90
23719;DHT22;43322;52.230;5.702;2023-06-22T06:11:49;19.30;99.90
23719;DHT22;43322;52.230;5.702;2023-06-22T06:14:15;19.30;99.90
23719;DHT22;43322;52.230;5.702;2023-06-22T06:16:43;19.30;99.90
23719;DHT22;43322;52.230;5.702;2023-06-22T06:19:11;19.40;99.90
23719;DHT22;43322;52.230;5.702;2023-06-22T06:21:37;19.40;99.90
23719;DHT22;43322;52.230;5.702;2023-06-22T06:24:04;19.30;99.90
23719;DHT22;43322;52.230;5.702;2023-06-22T06:26:31;19.30;99.90
23719;DHT22;43322;52.230;5.702;2023-06-22T06:28:59;19.30;99.90
23719;DHT22;43322;52.230;5.702;2023-06-22T06:31:27;19.30;99.90
23719;DHT22;43322;52.230;5.702;2023-06-22T06:33:54;19.40;99.90
23719;DHT22;43322;52.230;5.702;2023-06-22T06:36:22;19.50;99.90
23719;DHT22;43322;52.230;5.702;2023-06-22T06:38:49;19.80;99.90
23719;DHT22;43322;52.230;5.702;2023-06-22T06:41:16;19.70;99.90
23719;DHT22;43322;52.230;5.702;2023-06-22T06:43:43;19.70;99.90
23719;DHT22;43322;52.230;5.702;2023-06-22T06:46:10;19.80;99.90
23719;DHT22;43322;52.230;5.702;2023-06-22T06:48:36;19.80;99.90
23719;DHT22;43322;52.230;5.702;2023-06-22T06:51:03;19.90;99.90
23719;DHT22;43322;52.230;5.702;2023-06-22T06:53:31;20.00;99.90
23719;DHT22;43322;52.230;5.702;2023-06-22T06:55:58;20.00;99.90
23719;DHT22;43322;52.230;5.702;2023-06-22T06:58:24;20.20;99.90
23719;DHT22;43322;52.230;5.702;2023-06-22T07:00:51;20.30;99.90
23719;DHT22;43322;52.230;5.702;2023-06-22T07:03:18;20.30;99.90
23719;DHT22;43322;52.230;5.702;2023-06-22T07:05:44;20.40;99.90
23719;DHT22;43322;52.230;5.702;2023-06-22T07:08:11;20.50;99.90
23719;DHT22;43322;52.230;5.702;2023-06-22T07:10:39;20.50;99.90
23719;DHT22;43322;52.230;5.702;2023-06-22T07:13:06;20.60;99.90
23719;DHT22;43322;52.230;5.702;2023-06-22T07:15:32;20.60;99.90
23719;DHT22;43322;52.230;5.702;2023-06-22T07:17:59;20.70;99.90
23719;DHT22;43322;52.230;5.702;2023-06-22T07:20:26;20.90;99.90
23719;DHT22;43322;52.230;5.702;2023-06-22T07:22:52;21.00;99.90
23719;DHT22;43322;52.230;5.702;2023-06-22T07:25:19;21.20;99.90
23719;DHT22;43322;52.230;5.702;2023-06-22T07:27:58;21.30;99.90
23719;DHT22;43322;52.230;5.702;2023-06-22T07:30:26;21.50;99.90
23719;DHT22;43322;52.230;5.702;2023-06-22T07:32:53;21.60;99.90
23719;DHT22;43322;52.230;5.702;2023-06-22T07:35:20;21.60;99.90
23719;DHT22;43322;52.230;5.702;2023-06-22T07:37:46;21.70;99.90
23719;DHT22;43322;52.230;5.702;2023-06-22T07:40:13;21.70;99.90
23719;DHT22;43322;52.230;5.702;2023-06-22T07:42:40;21.80;99.90
23719;DHT22;43322;52.230;5.702;2023-06-22T07:45:08;21.90;99.90
23719;DHT22;43322;52.230;5.702;2023-06-22T07:47:35;22.10;99.90
23719;DHT22;43322;52.230;5.702;2023-06-22T07:50:03;22.20;99.90
23719;DHT22;43322;52.230;5.702;2023-06-22T07:52:30;22.30;99.90
23719;DHT22;43322;52.230;5.702;2023-06-22T07:54:57;22.40;99.90
23719;DHT22;43322;52.230;5.702;2023-06-22T07:57:24;22.40;99.90
23719;DHT22;43322;52.230;5.702;2023-06-22T07:59:57;22.40;99.90
23719;DHT22;43322;52.230;5.702;2023-06-22T08:02:25;22.50;99.90
23719;DHT22;43322;52.230;5.702;2023-06-22T08:04:52;22.60;99.90
23719;DHT22;43322;52.230;5.702;2023-06-22T08:07:19;22.60;99.90
23719;DHT22;43322;52.230;5.702;2023-06-22T08:09:47;22.60;99.90
23719;DHT22;43322;52.230;5.702;2023-06-22T08:12:14;22.60;99.90
23719;DHT22;43322;52.230;5.702;2023-06-22T08:14:42;22.80;99.90
23719;DHT22;43322;52.230;5.702;2023-06-22T08:17:08;22.70;99.90
23719;DHT22;43322;52.230;5.702;2023-06-22T08:19:37;22.60;99.90
23719;DHT22;43322;52.230;5.702;2023-06-22T08:22:04;22.60;99.90
23719;DHT22;43322;52.230;5.702;2023-06-22T08:24:30;22.80;99.90
23719;DHT22;43322;52.230;5.702;2023-06-22T08:26:57;23.00;99.90
23719;DHT22;43322;52.230;5.702;2023-06-22T08:29:24;23.10;99.90
23719;DHT22;43322;52.230;5.702;2023-06-22T08:31:50;23.20;99.90
23719;DHT22;43322;52.230;5.702;2023-06-22T08:34:17;23.40;99.90
23719;DHT22;43322;52.230;5.702;2023-06-22T08:36:48;23.50;99.90
23719;DHT22;43322;52.230;5.702;2023-06-22T08:39:18;23.70;99.90
23719;DHT22;43322;52.230;5.702;2023-06-22T08:41:45;23.80;99.90
23719;DHT22;43322;52.230;5.702;2023-06-22T08:44:12;24.00;99.90
23719;DHT22;43322;52.230;5.702;2023-06-22T08:46:38;24.20;99.90
23719;DHT22;43322;52.230;5.702;2023-06-22T08:49:06;24.40;99.90
23719;DHT22;43322;52.230;5.702;2023-06-22T08:51:32;24.70;99.90
23719;DHT22;43322;52.230;5.702;2023-06-22T08:54:00;25.10;99.90
23719;DHT22;43322;52.230;5.702;2023-06-22T08:56:27;25.50;99.90
23719;DHT22;43322;52.230;5.702;2023-06-22T08:58:54;25.50;99.90
23719;DHT22;43322;52.230;5.702;2023-06-22T09:01:21;25.30;99.90
23719;DHT22;43322;52.230;5.702;2023-06-22T09:03:47;25.20;99.90
23719;DHT22;43322;52.230;5.702;2023-06-22T09:06:19;25.10;99.90
23719;DHT22;43322;52.230;5.702;2023-06-22T09:08:46;25.10;99.90
23719;DHT22;43322;52.230;5.702;2023-06-22T09:11:14;25.00;99.90
23719;DHT22;43322;52.230;5.702;2023-06-22T09:13:41;25.00;99.90
23719;DHT22;43322;52.230;5.702;2023-06-22T09:16:08;25.20;99.90
23719;DHT22;43322;52.230;5.702;2023-06-22T09:18:34;25.60;99.90
23719;DHT22;43322;52.230;5.702;2023-06-22T09:21:01;25.70;99.90
23719;DHT22;43322;52.230;5.702;2023-06-22T09:23:28;25.70;99.90
23719;DHT22;43322;52.230;5.702;2023-06-22T09:25:55;25.70;99.90
23719;DHT22;43322;52.230;5.702;2023-06-22T09:28:23;25.60;99.90
23719;DHT22;43322;52.230;5.702;2023-06-22T09:30:50;25.30;99.90
23719;DHT22;43322;52.230;5.702;2023-06-22T09:33:17;25.30;99.90
23719;DHT22;43322;52.230;5.702;2023-06-22T09:35:45;25.40;99.90
23719;DHT22;43322;52.230;5.702;2023-06-22T09:38:11;25.60;99.90
23719;DHT22;43322;52.230;5.702;2023-06-22T09:40:38;25.50;99.90
23719;DHT22;43322;52.230;5.702;2023-06-22T09:43:05;25.70;99.90
23719;DHT22;43322;52.230;5.702;2023-06-22T09:45:33;26.30;99.90
23719;DHT22;43322;52.230;5.702;2023-06-22T09:48:00;26.10;99.90
23719;DHT22;43322;52.230;5.702;2023-06-22T09:50:26;26.10;99.90
23719;DHT22;43322;52.230;5.702;2023-06-22T09:52:53;26.40;99.90
23719;DHT22;43322;52.230;5.702;2023-06-22T09:55:21;26.60;99.90
23719;DHT22;43322;52.230;5.702;2023-06-22T09:57:47;26.50;99.90
23719;DHT22;43322;52.230;5.702;2023-06-22T10:00:16;26.30;99.90
23719;DHT22;43322;52.230;5.702;2023-06-22T10:02:46;26.30;99.90
23719;DHT22;43322;52.230;5.702;2023-06-22T10:05:13;26.30;99.90
23719;DHT22;43322;52.230;5.702;2023-06-22T10:07:40;26.30;99.90
23719;DHT22;43322;52.230;5.702;2023-06-22T10:10:09;26.20;99.90
23719;DHT22;43322;52.230;5.702;2023-06-22T10:12:35;26.00;99.90
23719;DHT22;43322;52.230;5.702;2023-06-22T10:15:03;25.80;99.90
23719;DHT22;43322;52.230;5.702;2023-06-22T10:17:30;25.70;99.90
23719;DHT22;43322;52.230;5.702;2023-06-22T10:19:58;25.50;99.90
23719;DHT22;43322;52.230;5.702;2023-06-22T10:22:24;25.20;99.90
23719;DHT22;43322;52.230;5.702;2023-06-22T10:24:51;25.00;99.90
23719;DHT22;43322;52.230;5.702;2023-06-22T10:27:17;24.70;99.90
23719;DHT22;43322;52.230;5.702;2023-06-22T10:29:44;24.60;99.90
23719;DHT22;43322;52.230;5.702;2023-06-22T10:32:11;24.60;99.90
23719;DHT22;43322;52.230;5.702;2023-06-22T10:34:37;24.50;99.90
23719;DHT22;43322;52.230;5.702;2023-06-22T10:37:06;24.40;99.90
23719;DHT22;43322;52.230;5.702;2023-06-22T10:39:32;24.40;99.90
23719;DHT22;43322;52.230;5.702;2023-06-22T10:41:59;24.30;99.90
23719;DHT22;43322;52.230;5.702;2023-06-22T10:44:26;24.20;99.90
23719;DHT22;43322;52.230;5.702;2023-06-22T10:46:52;24.10;99.90
23719;DHT22;43322;52.230;5.702;2023-06-22T10:49:19;24.00;99.90
23719;DHT22;43322;52.230;5.702;2023-06-22T10:51:46;23.90;99.90
23719;DHT22;43322;52.230;5.702;2023-06-22T10:54:14;23.90;99.90
23719;DHT22;43322;52.230;5.702;2023-06-22T10:56:43;23.70;99.90
23719;DHT22;43322;52.230;5.702;2023-06-22T10:59:10;23.90;99.90
23719;DHT22;43322;52.230;5.702;2023-06-22T11:01:37;23.90;99.90
23719;DHT22;43322;52.230;5.702;2023-06-22T11:04:03;24.00;99.90
23719;DHT22;43322;52.230;5.702;2023-06-22T11:06:30;24.10;99.90
23719;DHT22;43322;52.230;5.702;2023-06-22T11:08:57;24.20;99.90
23719;DHT22;43322;52.230;5.702;2023-06-22T11:11:26;24.40;99.90
23719;DHT22;43322;52.230;5.702;2023-06-22T11:13:53;24.40;99.90
23719;DHT22;43322;52.230;5.702;2023-06-22T11:16:19;24.60;99.90
23719;DHT22;43322;52.230;5.702;2023-06-22T11:18:46;24.70;99.90
23719;DHT22;43322;52.230;5.702;2023-06-22T11:21:13;24.80;99.90
23719;DHT22;43322;52.230;5.702;2023-06-22T11:23:39;25.00;99.90
23719;DHT22;43322;52.230;5.702;2023-06-22T11:26:06;25.00;99.90
23719;DHT22;43322;52.230;5.702;2023-06-22T11:28:34;25.00;99.90
23719;DHT22;43322;52.230;5.702;2023-06-22T11:31:01;25.20;99.90
23719;DHT22;43322;52.230;5.702;2023-06-22T11:33:27;25.20;99.90
23719;DHT22;43322;52.230;5.702;2023-06-22T11:35:54;25.20;99.90
23719;DHT22;43322;52.230;5.702;2023-06-22T11:38:21;25.20;99.90
23719;DHT22;43322;52.230;5.702;2023-06-22T11:40:48;25.20;99.90
23719;DHT22;43322;52.230;5.702;2023-06-22T11:43:15;25.20;99.90
23719;DHT22;43322;52.230;5.702;2023-06-22T11:45:43;25.10;99.90
23719;DHT22;43322;52.230;5.702;2023-06-22T11:48:09;25.10;99.90
23719;DHT22;43322;52.230;5.702;2023-06-22T11:50:36;25.00;99.90
23719;DHT22;43322;52.230;5.702;2023-06-22T11:53:03;24.90;99.90
23719;DHT22;43322;52.230;5.702;2023-06-22T11:55:29;24.90;99.90
23719;DHT22;43322;52.230;5.702;2023-06-22T11:57:57;24.90;99.90
23719;DHT22;43322;52.230;5.702;2023-06-22T12:00:26;24.80;99.90
23719;DHT22;43322;52.230;5.702;2023-06-22T12:02:54;24.60;99.90
23719;DHT22;43322;52.230;5.702;2023-06-22T12:05:21;24.70;99.90
23719;DHT22;43322;52.230;5.702;2023-06-22T12:07:49;24.60;99.90
23719;DHT22;43322;52.230;5.702;2023-06-22T12:10:16;24.70;99.90
23719;DHT22;43322;52.230;5.702;2023-06-22T12:12:42;24.70;99.90
23719;DHT22;43322;52.230;5.702;2023-06-22T12:15:10;24.70;99.90
23719;DHT22;43322;52.230;5.702;2023-06-22T12:17:37;24.70;99.90
23719;DHT22;43322;52.230;5.702;2023-06-22T12:20:07;24.60;99.90
23719;DHT22;43322;52.230;5.702;2023-06-22T12:22:34;24.50;99.90
23719;DHT22;43322;52.230;5.702;2023-06-22T12:25:03;24.40;99.90
23719;DHT22;43322;52.230;5.702;2023-06-22T12:27:30;24.40;99.90
23719;DHT22;43322;52.230;5.702;2023-06-22T12:29:56;24.30;99.90
23719;DHT22;43322;52.230;5.702;2023-06-22T12:32:23;24.20;99.90
23719;DHT22;43322;52.230;5.702;2023-06-22T12:34:51;24.20;99.90
23719;DHT22;43322;52.230;5.702;2023-06-22T12:37:19;24.20;99.90
23719;DHT22;43322;52.230;5.702;2023-06-22T12:39:45;24.30;99.90
23719;DHT22;43322;52.230;5.702;2023-06-22T12:42:12;24.30;99.90
23719;DHT22;43322;52.230;5.702;2023-06-22T12:44:39;24.30;99.90
23719;DHT22;43322;52.230;5.702;2023-06-22T12:47:06;24.20;99.90
23719;DHT22;43322;52.230;5.702;2023-06-22T12:49:33;24.10;99.90
23719;DHT22;43322;52.230;5.702;2023-06-22T12:52:00;23.90;99.90
23719;DHT22;43322;52.230;5.702;2023-06-22T12:54:28;23.80;99.90
23719;DHT22;43322;52.230;5.702;2023-06-22T12:56:56;23.70;99.90
23719;DHT22;43322;52.230;5.702;2023-06-22T12:59:22;23.70;99.90
23719;DHT22;43322;52.230;5.702;2023-06-22T13:01:49;23.70;99.90
23719;DHT22;43322;52.230;5.702;2023-06-22T13:04:16;23.80;99.90
23719;DHT22;43322;52.230;5.702;2023-06-22T13:06:43;23.80;99.90
23719;DHT22;43322;52.230;5.702;2023-06-22T13:09:13;23.80;99.90
23719;DHT22;43322;52.230;5.702;2023-06-22T13:11:41;23.80;99.90
23719;DHT22;43322;52.230;5.702;2023-06-22T13:14:08;23.80;99.90
23719;DHT22;43322;52.230;5.702;2023-06-22T13:16:35;23.70;99.90
23719;DHT22;43322;52.230;5.702;2023-06-22T13:19:02;23.60;99.90
23719;DHT22;43322;52.230;5.702;2023-06-22T13:21:28;23.50;99.90
23719;DHT22;43322;52.230;5.702;2023-06-22T13:23:55;23.40;99.90
23719;DHT22;43322;52.230;5.702;2023-06-22T13:26:22;23.30;99.90
23719;DHT22;43322;52.230;5.702;2023-06-22T13:28:49;23.20;99.90
23719;DHT22;43322;52.230;5.702;2023-06-22T13:31:16;23.10;99.90
23719;DHT22;43322;52.230;5.702;2023-06-22T13:33:43;23.10;99.90
23719;DHT22;43322;52.230;5.702;2023-06-22T13:36:13;23.00;99.90
23719;DHT22;43322;52.230;5.702;2023-06-22T13:38:40;23.00;99.90
23719;DHT22;43322;52.230;5.702;2023-06-22T13:41:06;23.00;99.90
23719;DHT22;43322;52.230;5.702;2023-06-22T13:43:33;23.00;99.90
23719;DHT22;43322;52.230;5.702;2023-06-22T13:46:01;22.90;99.90
23719;DHT22;43322;52.230;5.702;2023-06-22T13:48:28;22.90;99.90
23719;DHT22;43322;52.230;5.702;2023-06-22T13:50:55;22.90;99.90
23719;DHT22;43322;52.230;5.702;2023-06-22T13:53:24;22.80;99.90
23719;DHT22;43322;52.230;5.702;2023-06-22T13:55:50;22.90;99.90
23719;DHT22;43322;52.230;5.702;2023-06-22T13:58:17;22.90;99.90
23719;DHT22;43322;52.230;5.702;2023-06-22T14:00:45;22.90;99.90
23719;DHT22;43322;52.230;5.702;2023-06-22T14:03:14;22.90;99.90
23719;DHT22;43322;52.230;5.702;2023-06-22T14:05:42;22.80;99.90
23719;DHT22;43322;52.230;5.702;2023-06-22T14:08:09;22.80;99.90
23719;DHT22;43322;52.230;5.702;2023-06-22T14:10:35;22.70;99.90
23719;DHT22;43322;52.230;5.702;2023-06-22T14:13:02;22.60;99.90
23719;DHT22;43322;52.230;5.702;2023-06-22T14:15:31;22.50;99.90
23719;DHT22;43322;52.230;5.702;2023-06-22T14:17:58;22.50;99.90
23719;DHT22;43322;52.230;5.702;2023-06-22T14:20:26;22.50;99.90
23719;DHT22;43322;52.230;5.702;2023-06-22T14:22:52;22.50;99.90
23719;DHT22;43322;52.230;5.702;2023-06-22T14:25:19;22.50;99.90
23719;DHT22;43322;52.230;5.702;2023-06-22T14:27:46;22.50;99.90
23719;DHT22;43322;52.230;5.702;2023-06-22T14:30:12;22.50;99.90
23719;DHT22;43322;52.230;5.702;2023-06-22T14:32:39;22.40;99.90
23719;DHT22;43322;52.230;5.702;2023-06-22T14:35:06;22.40;99.90
23719;DHT22;43322;52.230;5.702;2023-06-22T14:37:34;22.30;99.90
23719;DHT22;43322;52.230;5.702;2023-06-22T14:40:01;22.20;99.90
23719;DHT22;43322;52.230;5.702;2023-06-22T14:42:27;22.20;99.90
23719;DHT22;43322;52.230;5.702;2023-06-22T14:44:55;22.10;99.90
23719;DHT22;43322;52.230;5.702;2023-06-22T14:47:22;22.00;99.90
23719;DHT22;43322;52.230;5.702;2023-06-22T14:49:48;21.80;99.90
23719;DHT22;43322;52.230;5.702;2023-06-22T14:52:15;21.60;99.90
23719;DHT22;43322;52.230;5.702;2023-06-22T14:54:43;21.50;99.90
23719;DHT22;43322;52.230;5.702;2023-06-22T14:57:10;21.30;99.90
23719;DHT22;43322;52.230;5.702;2023-06-22T14:59:36;21.20;99.90
23719;DHT22;43322;52.230;5.702;2023-06-22T15:02:03;21.10;99.90
23719;DHT22;43322;52.230;5.702;2023-06-22T15:04:29;21.20;99.90
23719;DHT22;43322;52.230;5.702;2023-06-22T15:07:00;21.30;99.90
23719;DHT22;43322;52.230;5.702;2023-06-22T15:09:26;21.30;99.90
23719;DHT22;43322;52.230;5.702;2023-06-22T15:11:54;21.30;99.90
23719;DHT22;43322;52.230;5.702;2023-06-22T15:14:21;21.20;99.90
23719;DHT22;43322;52.230;5.702;2023-06-22T15:16:48;21.20;99.90
23719;DHT22;43322;52.230;5.702;2023-06-22T15:19:14;21.30;99.90
23719;DHT22;43322;52.230;5.702;2023-06-22T15:21:41;21.20;99.90
23719;DHT22;43322;52.230;5.702;2023-06-22T15:24:08;21.20;99.90
23719;DHT22;43322;52.230;5.702;2023-06-22T15:26:34;21.20;99.90
23719;DHT22;43322;52.230;5.702;2023-06-22T15:29:02;21.10;99.90
23719;DHT22;43322;52.230;5.702;2023-06-22T15:31:29;21.10;99.90